»·PEaware :: UAL5203 KSFO-KRDD

UAL5203 :: KSFO-KRDD

FLIGHT INFORMATION

Flight Status: Arrived
Operator:
United Airlines
More flights by this operator :: More flights under this callsign
Pilot: Matthew M. (8235)
Aircraft: BOEING 737-200
(B732)
More flights by this aircraft type
Origin: KSFO San Francisco Intl
United States
Destination: KRDD Redding Mun
United States
More flights between these airports :: More routes between these airports
Route: TRUKN2 DEDHD RBL
File this flight plan on PilotEdge
Remarks:
Altitude:
(Current/Filed)
26,000ft
Speed:
(Current/Filed)
437kts
Departed: 17-Jan-18 01:08 PM
Arrived: 17-Jan-18 01:48 PM
Distance/Time
Traveled:
173nm/0:40
Distance/Time
To Go:
Arrived

Flight Plot

Page will automatically refresh every two minutes.

Flight plan parsing failed; only flown route is shown


Map Options




Map Legend


Flown Route
Filed Route
Departure Airport
Arrival Airport
Navaid (VOR, NDB)
Fix

Horizontal Profiles

Position Reports

Time Latitude Longitude Heading Altitude Ground
Speed
17-Jan-18 12:54 37.620671 -122.387780 201 21ft 0kts
17-Jan-18 12:55 37.620671 -122.387780 201 21ft 0kts
17-Jan-18 12:56 37.620671 -122.387780 201 21ft 0kts
17-Jan-18 12:57 37.620671 -122.387780 201 21ft 0kts
17-Jan-18 12:58 37.620671 -122.387780 201 21ft 0kts
17-Jan-18 12:59 37.620671 -122.387780 201 21ft 0kts
17-Jan-18 13:00 37.620671 -122.387780 201 21ft 0kts
17-Jan-18 13:01 37.620671 -122.387780 201 21ft 0kts
17-Jan-18 13:02 37.620671 -122.387780 201 21ft 0kts
17-Jan-18 13:03 37.620671 -122.387780 201 21ft 0kts
17-Jan-18 13:04 37.620671 -122.387780 201 21ft 0kts
17-Jan-18 13:05 37.620671 -122.387780 201 21ft 0kts
17-Jan-18 13:06 37.620674 -122.387781 203 21ft 0kts
17-Jan-18 13:07 37.621336 -122.387998 3 21ft 0kts
17-Jan-18 13:08 37.620910 -122.384962 118 21ft 18kts
17-Jan-18 13:09 37.617659 -122.379517 169 21ft 24kts
17-Jan-18 13:10 37.611993 -122.382722 208 21ft 23kts
17-Jan-18 13:11 37.608423 -122.383747 116 21ft 5kts
17-Jan-18 13:12 37.608333 -122.383514 116 21ft 9kts
17-Jan-18 13:13 37.609219 -122.382039 27 21ft 24kts
17-Jan-18 13:14 37.636484 -122.358272 53 1810ft 162kts
17-Jan-18 13:15 37.663826 -122.311947 51 4722ft 199kts
17-Jan-18 13:16 37.696488 -122.255032 54 7162ft 248kts
17-Jan-18 13:17 37.750926 -122.212170 7 10229ft 257kts
17-Jan-18 13:18 37.819308 -122.198657 4 12978ft 270kts
17-Jan-18 13:19 37.893135 -122.185971 3 15600ft 281kts
17-Jan-18 13:20 37.972431 -122.172909 3 16961ft 328kts
17-Jan-18 13:21 38.063795 -122.157791 2 18741ft 352kts
17-Jan-18 13:22 38.151594 -122.143279 1 20529ft 361kts
17-Jan-18 13:23 38.248134 -122.127284 1 22446ft 363kts
17-Jan-18 13:24 38.344925 -122.114053 351 24260ft 355kts
17-Jan-18 13:25 38.436429 -122.119871 350 24797ft 384kts
17-Jan-18 13:26 38.524830 -122.125875 350 24894ft 414kts
17-Jan-18 13:27 38.632182 -122.133171 350 25891ft 418kts
17-Jan-18 13:28 38.744896 -122.140991 351 26037ft 441kts
17-Jan-18 13:29 38.860430 -122.148966 351 26327ft 453kts
17-Jan-18 13:30 38.981547 -122.157311 350 26326ft 469kts
17-Jan-18 13:31 39.102058 -122.162162 349 26332ft 481kts
17-Jan-18 13:32 39.212323 -122.170678 349 26326ft 490kts
17-Jan-18 13:33 39.334959 -122.179682 349 26323ft 492kts
17-Jan-18 13:34 39.447179 -122.187541 347 26014ft 367kts
17-Jan-18 13:35 39.537954 -122.194510 347 23521ft 340kts
17-Jan-18 13:36 39.625530 -122.200947 347 21544ft 303kts
17-Jan-18 13:37 39.701487 -122.206695 347 18631ft 288kts
17-Jan-18 13:38 39.773000 -122.212100 349 15788ft 285kts
17-Jan-18 13:39 39.841041 -122.217093 349 14313ft 273kts
17-Jan-18 13:40 39.910189 -122.222259 350 12304ft 264kts
17-Jan-18 13:41 39.977527 -122.226726 350 9631ft 237kts
17-Jan-18 13:42 40.034815 -122.231477 353 6945ft 222kts
17-Jan-18 13:43 40.089966 -122.235720 355 4976ft 176kts
17-Jan-18 13:44 40.131426 -122.249363 341 4242ft 202kts
17-Jan-18 13:45 40.183857 -122.274979 338 3021ft 211kts
17-Jan-18 13:46 40.235949 -122.292546 6 3019ft 190kts
17-Jan-18 13:47 40.287111 -122.294665 355 2713ft 188kts
17-Jan-18 13:48 40.334718 -122.295087 0 2709ft 169kts
17-Jan-18 13:49 40.375891 -122.294987 0 2711ft 141kts
17-Jan-18 13:50 40.411573 -122.294949 0 2249ft 129kts
17-Jan-18 13:51 40.445008 -122.294919 0 1633ft 133kts
17-Jan-18 13:52 40.481355 -122.294883 0 912ft 134kts
17-Jan-18 13:53 40.512910 -122.294877 359 504ft 46kts
17-Jan-18 13:54 40.514181 -122.296164 234 504ft 5kts
17-Jan-18 13:55 40.508418 -122.297151 224 501ft 21kts
17-Jan-18 13:56 40.505715 -122.298749 300 499ft 3kts
17-Jan-18 13:57 40.505959 -122.299101 313 499ft 0kts
17-Jan-18 13:58 40.505959 -122.299101 313 499ft 0kts
17-Jan-18 13:59 40.505959 -122.299101 313 499ft 0kts
17-Jan-18 14:00 40.505959 -122.299101 313 499ft 0kts
17-Jan-18 14:01 40.505959 -122.299101 313 499ft 0kts
17-Jan-18 14:02 40.505959 -122.299101 313 499ft 0kts
17-Jan-18 14:03 40.505959 -122.299101 313 499ft 0kts
17-Jan-18 14:04 40.505959 -122.299101 313 499ft 0kts
17-Jan-18 14:05 40.505959 -122.299101 313 499ft 0kts
17-Jan-18 14:06 40.505959 -122.299101 313 499ft 0kts
17-Jan-18 14:07 40.505959 -122.299101 313 499ft 0kts
17-Jan-18 14:08 40.505959 -122.299101 313 499ft 0kts

Navigation Log

Ident Type
Flight plan parsing failed, navigation log unavailable